Time;durP1;ratioP1;P1;durP2;ratioP2;P2;SDS_P1;SDS_P2;PMS_P1;PMS_P2;Temp;Humidity;BMP_temperature;BMP_pressure;BME280_temperature;BME280_humidity;BME280_pressure;Samples;Min_cycle;Max_cycle;Signal;HPM_P1;HPM_P2
2022/02/18 00:00:54;;;;;;;21.38;1.50;;;7.20;99.90;;;;;;5024165;28;20037;-81
2022/02/18 00:03:23;;;;;;;18.20;1.33;;;7.20;99.90;;;;;;5022755;28;20064;-81
2022/02/18 00:05:50;;;;;;;14.68;1.45;;;7.20;99.90;;;;;;5025425;28;20114;-81
2022/02/18 00:08:15;;;;;;;19.00;2.10;;;7.20;99.90;;;;;;5016159;28;20072;-81
2022/02/18 00:10:42;;;;;;;13.68;1.58;;;7.20;99.90;;;;;;5025225;28;20053;-82
2022/02/18 00:13:08;;;;;;;23.75;1.63;;;7.20;99.90;;;;;;5025816;28;20026;-81
2022/02/18 00:15:34;;;;;;;14.35;1.27;;;7.30;99.90;;;;;;5032634;28;20026;-82
2022/02/18 00:18:02;;;;;;;20.17;1.98;;;7.20;99.90;;;;;;5031970;28;20116;-81
2022/02/18 00:20:29;;;;;;;18.27;2.08;;;7.20;99.90;;;;;;5032271;28;20045;-81
2022/02/18 00:22:55;;;;;;;9.55;1.17;;;7.20;99.90;;;;;;5017386;28;20029;-81
2022/02/18 00:25:21;;;;;;;17.48;1.63;;;7.20;99.90;;;;;;5013275;28;20026;-81
2022/02/18 00:27:46;;;;;;;13.50;1.52;;;7.20;99.90;;;;;;5028541;28;20532;-81
2022/02/18 00:30:12;;;;;;;13.05;1.75;;;7.30;99.90;;;;;;5031667;28;20042;-81
2022/02/18 00:32:38;;;;;;;19.08;1.27;;;7.30;99.90;;;;;;5019520;28;20045;-81
2022/02/18 00:35:04;;;;;;;19.92;1.73;;;7.30;99.90;;;;;;5018455;28;20045;-81
2022/02/18 00:37:30;;;;;;;15.20;1.10;;;7.30;99.90;;;;;;5026835;28;20026;-81
2022/02/18 00:39:59;;;;;;;13.60;1.80;;;7.30;99.90;;;;;;5027053;28;20091;-81
2022/02/18 00:42:25;;;;;;;12.88;1.77;;;7.30;99.90;;;;;;5027390;28;20038;-81
2022/02/18 00:44:51;;;;;;;15.10;1.90;;;7.30;99.90;;;;;;5027276;28;20037;-81
2022/02/18 00:47:17;;;;;;;13.43;1.85;;;7.30;99.90;;;;;;5032471;28;20378;-82
2022/02/18 00:49:43;;;;;;;14.57;1.40;;;7.30;99.90;;;;;;5019888;28;20044;-81
2022/02/18 00:52:09;;;;;;;22.85;2.40;;;7.30;99.90;;;;;;5023089;28;20030;-81
2022/02/18 00:54:34;;;;;;;9.23;0.98;;;7.40;99.90;;;;;;5014144;28;20042;-81
2022/02/18 00:57:00;;;;;;;15.20;1.50;;;7.40;99.90;;;;;;5029490;28;20091;-82
2022/02/18 00:59:25;;;;;;;15.93;1.35;;;7.40;99.90;;;;;;5029443;28;20033;-82
2022/02/18 01:01:51;;;;;;;17.40;1.33;;;7.30;99.90;;;;;;5016472;28;20648;-82
2022/02/18 01:04:17;;;;;;;19.27;1.42;;;7.30;99.90;;;;;;5012670;28;20036;-82
2022/02/18 01:06:43;;;;;;;12.35;1.17;;;7.30;99.90;;;;;;5027903;28;20380;-82
2022/02/18 01:09:09;;;;;;;11.20;1.17;;;7.30;99.90;;;;;;5015636;28;20018;-82
2022/02/18 01:11:34;;;;;;;15.02;1.23;;;7.30;99.90;;;;;;5030878;28;20021;-81
2022/02/18 01:14:01;;;;;;;15.80;1.27;;;7.30;99.90;;;;;;5023230;28;20064;-81
2022/02/18 01:16:27;;;;;;;16.02;1.52;;;7.30;99.90;;;;;;5028132;28;20045;-81
2022/02/18 01:18:53;;;;;;;21.38;2.10;;;7.20;99.90;;;;;;5031518;28;20037;-81
2022/02/18 01:21:19;;;;;;;18.17;1.60;;;7.20;99.90;;;;;;5030743;28;20381;-81
2022/02/18 01:23:45;;;;;;;13.95;1.20;;;7.20;99.90;;;;;;5020409;28;20022;-81
2022/02/18 01:26:11;;;;;;;18.38;1.30;;;7.20;99.90;;;;;;5012315;28;20037;-82
2022/02/18 01:28:36;;;;;;;17.05;1.30;;;7.20;99.90;;;;;;5023159;28;20021;-81
2022/02/18 01:31:02;;;;;;;21.20;1.88;;;7.30;99.90;;;;;;5027991;28;20075;-82
2022/02/18 01:33:27;;;;;;;11.13;1.67;;;7.20;99.90;;;;;;5031918;28;20462;-81
2022/02/18 01:35:53;;;;;;;16.50;1.65;;;7.20;99.90;;;;;;5017674;28;20033;-81
2022/02/18 01:38:19;;;;;;;19.15;2.30;;;7.20;99.90;;;;;;5014570;28;20026;-81
2022/02/18 01:40:44;;;;;;;13.77;2.15;;;7.20;99.90;;;;;;5029061;28;20033;-81
2022/02/18 01:43:10;;;;;;;13.68;1.73;;;7.20;99.90;;;;;;5030547;28;20025;-81
2022/02/18 01:45:36;;;;;;;14.05;1.45;;;7.20;99.90;;;;;;5030305;28;20065;-82
2022/02/18 01:48:02;;;;;;;16.95;2.10;;;7.20;99.90;;;;;;5029986;28;20112;-81
2022/02/18 01:50:28;;;;;;;16.17;1.85;;;7.20;99.90;;;;;;5019030;28;20041;-81
2022/02/18 01:52:55;;;;;;;13.65;1.27;;;7.20;99.90;;;;;;5028105;28;20492;-81
2022/02/18 01:55:23;;;;;;;16.42;1.98;;;7.20;99.90;;;;;;5015417;28;20058;-82
2022/02/18 01:57:54;;;;;;;14.48;2.10;;;7.30;99.90;;;;;;5021525;28;20072;-82
2022/02/18 02:00:29;;;;;;;14.88;1.75;;;7.30;99.90;;;;;;5029639;28;20035;-81
2022/02/18 02:02:56;;;;;;;22.98;3.33;;;7.30;99.90;;;;;;5017427;28;20068;-81
2022/02/18 02:05:22;;;;;;;17.63;1.77;;;7.30;99.90;;;;;;5028383;28;20429;-81
2022/02/18 02:07:48;;;;;;;14.18;2.38;;;7.30;99.90;;;;;;5015691;28;20041;-81
2022/02/18 02:10:16;;;;;;;17.85;2.67;;;7.30;99.90;;;;;;5021688;28;20029;-81
2022/02/18 02:12:52;;;;;;;18.58;2.47;;;7.30;99.90;;;;;;5018724;28;20601;-82
2022/02/18 02:15:24;;;;;;;15.52;1.95;;;7.30;99.90;;;;;;5020195;28;20050;-81
2022/02/18 02:17:50;;;;;;;14.43;2.43;;;7.30;99.90;;;;;;5012944;28;20489;-81
2022/02/18 02:20:17;;;;;;;20.25;3.28;;;7.30;99.90;;;;;;5025250;28;20276;-82
2022/02/18 02:22:43;;;;;;;19.00;2.25;;;7.30;99.90;;;;;;5026266;28;20025;-81
2022/02/18 02:25:09;;;;;;;18.40;2.50;;;7.30;99.90;;;;;;5024276;28;20079;-82
2022/02/18 02:27:35;;;;;;;16.90;2.58;;;7.30;99.90;;;;;;5025768;28;20026;-81
2022/02/18 02:30:01;;;;;;;16.60;2.28;;;7.30;99.90;;;;;;5027601;28;20045;-82
2022/02/18 02:32:27;;;;;;;24.33;2.35;;;7.30;99.90;;;;;;5030705;28;20049;-82
2022/02/18 02:34:53;;;;;;;22.25;2.72;;;7.30;99.90;;;;;;5027697;28;20481;-81
2022/02/18 02:37:19;;;;;;;17.67;2.58;;;7.30;99.90;;;;;;5019798;28;20025;-82
2022/02/18 02:39:44;;;;;;;18.35;2.60;;;7.30;99.90;;;;;;5034013;28;20471;-81
2022/02/18 02:42:10;;;;;;;18.00;2.33;;;7.30;99.90;;;;;;5032375;28;20124;-81
2022/02/18 02:44:36;;;;;;;17.05;2.15;;;7.30;99.90;;;;;;5025352;28;20025;-81
2022/02/18 02:47:03;;;;;;;17.58;3.25;;;7.20;99.90;;;;;;5028943;28;20125;-82
2022/02/18 02:49:29;;;;;;;18.60;2.42;;;7.20;99.90;;;;;;5028220;28;20375;-82
2022/02/18 02:51:55;;;;;;;17.60;2.03;;;7.20;99.90;;;;;;5034391;28;20079;-82
2022/02/18 02:54:21;;;;;;;18.60;2.17;;;7.20;99.90;;;;;;5033255;28;20037;-81
2022/02/18 02:56:47;;;;;;;16.40;2.10;;;7.10;99.90;;;;;;5032962;28;20029;-82
2022/02/18 02:59:13;;;;;;;20.50;2.10;;;7.10;99.90;;;;;;5025160;28;20040;-81
2022/02/18 03:01:39;;;;;;;15.48;1.70;;;7.10;99.90;;;;;;5030002;28;20392;-82
2022/02/18 03:04:04;;;;;;;19.25;1.98;;;7.10;99.90;;;;;;5022528;28;20033;-81
2022/02/18 03:06:30;;;;;;;16.52;2.05;;;7.10;99.90;;;;;;5032815;28;20017;-81
2022/02/18 03:08:55;;;;;;;19.50;2.45;;;7.10;99.90;;;;;;5026195;28;20075;-81
2022/02/18 03:11:22;;;;;;;19.08;1.92;;;7.00;99.90;;;;;;5021179;28;20116;-81
2022/02/18 03:13:53;;;;;;;18.65;2.33;;;7.00;99.90;;;;;;5017465;28;20171;-81
2022/02/18 03:16:20;;;;;;;10.85;1.70;;;7.00;99.90;;;;;;5033773;28;20076;-81
2022/02/18 03:18:47;;;;;;;17.83;1.75;;;7.00;99.90;;;;;;5033355;28;20086;-81
2022/02/18 03:21:15;;;;;;;24.23;2.13;;;7.00;99.90;;;;;;5034271;28;20063;-81
2022/02/18 03:23:45;;;;;;;16.25;1.65;;;7.00;99.90;;;;;;5028393;28;20481;-81
2022/02/18 03:26:12;;;;;;;20.70;1.95;;;7.00;99.90;;;;;;5025419;28;20064;-80
2022/02/18 03:28:37;;;;;;;20.45;2.13;;;7.00;99.90;;;;;;5021198;28;20021;-81
2022/02/18 03:31:03;;;;;;;23.17;2.15;;;7.10;99.90;;;;;;5032468;28;20037;-81
2022/02/18 03:33:29;;;;;;;23.80;1.83;;;7.00;99.90;;;;;;5022566;28;20401;-81
2022/02/18 03:35:54;;;;;;;20.80;2.25;;;7.10;99.90;;;;;;5020503;28;20041;-80
2022/02/18 03:38:20;;;;;;;24.73;2.45;;;7.10;99.90;;;;;;5016922;28;20056;-81
2022/02/18 03:40:47;;;;;;;24.67;1.90;;;7.10;99.90;;;;;;5032759;28;20025;-81
2022/02/18 03:43:14;;;;;;;20.27;2.33;;;7.10;99.90;;;;;;5014788;28;20053;-82
2022/02/18 03:45:39;;;;;;;18.50;1.95;;;7.10;99.90;;;;;;5030994;28;20083;-81
2022/02/18 03:48:05;;;;;;;25.45;2.25;;;7.10;99.90;;;;;;5032767;28;20427;-81
2022/02/18 03:50:31;;;;;;;24.85;2.50;;;7.10;99.90;;;;;;5031847;28;20076;-81
2022/02/18 03:52:57;;;;;;;22.00;3.10;;;7.20;99.90;;;;;;5014827;28;20097;-81
2022/02/18 03:55:23;;;;;;;30.95;2.58;;;7.20;99.90;;;;;;5028151;28;20065;-82
2022/02/18 03:57:49;;;;;;;21.30;2.58;;;7.20;99.90;;;;;;5027385;28;20088;-82
2022/02/18 04:00:16;;;;;;;25.65;2.53;;;7.20;99.90;;;;;;5020254;28;20037;-81
2022/02/18 04:02:41;;;;;;;27.15;2.53;;;7.20;99.90;;;;;;5024444;28;20041;-81
2022/02/18 04:05:07;;;;;;;33.42;2.65;;;7.20;99.90;;;;;;5032789;28;20087;-81
2022/02/18 04:07:33;;;;;;;30.13;3.35;;;7.20;99.90;;;;;;5016232;28;20437;-80
2022/02/18 04:09:58;;;;;;;32.42;3.58;;;7.20;99.90;;;;;;5018743;28;20037;-81
2022/02/18 04:12:24;;;;;;;27.23;2.60;;;7.20;99.90;;;;;;5013361;28;20033;-81
2022/02/18 04:14:49;;;;;;;31.52;2.70;;;7.30;99.90;;;;;;5017706;28;20512;-82
2022/02/18 04:17:15;;;;;;;30.80;2.72;;;7.30;99.90;;;;;;5030680;28;20424;-82
2022/02/18 04:19:41;;;;;;;39.03;3.95;;;7.30;99.90;;;;;;5031411;28;20033;-81
2022/02/18 04:22:06;;;;;;;38.17;3.35;;;7.30;99.90;;;;;;5022543;28;20458;-81
2022/02/18 04:24:32;;;;;;;33.33;3.30;;;7.30;99.90;;;;;;5014649;28;20021;-81
2022/02/18 04:26:58;;;;;;;37.78;3.15;;;7.30;99.90;;;;;;5015084;28;20049;-81
2022/02/18 04:29:24;;;;;;;24.52;2.35;;;7.30;99.90;;;;;;5031842;28;20029;-82
2022/02/18 04:31:50;;;;;;;32.03;3.60;;;7.30;99.90;;;;;;5025433;28;20037;-81
2022/02/18 04:34:15;;;;;;;34.95;4.63;;;7.30;99.90;;;;;;5018581;28;20041;-82
2022/02/18 04:36:41;;;;;;;24.70;3.08;;;7.30;99.90;;;;;;5031126;28;20440;-81
2022/02/18 04:39:07;;;;;;;25.30;2.10;;;7.30;99.90;;;;;;5030423;28;20508;-82
2022/02/18 04:41:33;;;;;;;39.22;3.45;;;7.30;99.90;;;;;;5031756;28;20029;-80
2022/02/18 04:44:01;;;;;;;45.55;4.38;;;7.30;99.90;;;;;;5030631;28;20410;-81
2022/02/18 04:46:27;;;;;;;28.40;3.25;;;7.40;99.90;;;;;;5020840;28;20030;-81
2022/02/18 04:48:54;;;;;;;26.52;3.10;;;7.40;99.90;;;;;;5025200;28;20052;-81
2022/02/18 04:51:20;;;;;;;26.00;2.72;;;7.40;99.90;;;;;;5022757;28;20025;-81
2022/02/18 04:53:46;;;;;;;46.42;3.47;;;7.40;99.90;;;;;;5016457;28;20033;-82
2022/02/18 04:56:11;;;;;;;29.80;3.33;;;7.40;99.90;;;;;;5031944;28;20409;-81
2022/02/18 04:58:37;;;;;;;32.03;3.50;;;7.40;99.90;;;;;;5022036;28;20060;-81
2022/02/18 05:01:04;;;;;;;39.33;4.15;;;7.40;99.90;;;;;;5013935;28;20462;-81
2022/02/18 05:03:30;;;;;;;24.67;2.17;;;7.50;99.90;;;;;;5018487;28;20029;-81
2022/02/18 05:05:55;;;;;;;28.30;3.17;;;7.50;99.90;;;;;;5031850;28;20027;-81
2022/02/18 05:08:21;;;;;;;34.65;3.25;;;7.50;99.90;;;;;;5031838;28;20535;-81
2022/02/18 05:10:47;;;;;;;33.30;3.75;;;7.50;99.90;;;;;;5031069;28;20476;-81
2022/02/18 05:13:12;;;;;;;31.13;3.35;;;7.50;99.90;;;;;;5021402;28;20030;-81
2022/02/18 05:15:38;;;;;;;33.65;3.70;;;7.50;99.90;;;;;;5031631;28;20052;-82
2022/02/18 05:18:04;;;;;;;26.27;3.33;;;7.50;99.90;;;;;;5027101;28;20050;-81
2022/02/18 05:20:30;;;;;;;31.88;3.60;;;7.50;99.90;;;;;;5023734;28;20122;-81
2022/02/18 05:22:57;;;;;;;29.52;2.60;;;7.50;99.90;;;;;;5021520;28;20034;-82
2022/02/18 05:25:23;;;;;;;25.75;2.47;;;7.50;99.90;;;;;;5031291;28;20025;-82
2022/02/18 05:27:48;;;;;;;28.52;3.00;;;7.50;99.90;;;;;;5031130;28;20025;-81
2022/02/18 05:30:14;;;;;;;30.48;3.38;;;7.50;99.90;;;;;;5030358;28;20430;-81
2022/02/18 05:32:39;;;;;;;25.10;2.55;;;7.50;99.90;;;;;;5020492;28;20029;-81
2022/02/18 05:35:05;;;;;;;32.25;3.17;;;7.50;99.90;;;;;;5024979;28;20498;-81
2022/02/18 05:37:30;;;;;;;30.42;3.15;;;7.50;99.90;;;;;;5029162;28;20619;-81
2022/02/18 05:39:56;;;;;;;29.05;3.13;;;7.50;99.90;;;;;;5025745;28;20109;-81
2022/02/18 05:42:22;;;;;;;25.90;3.63;;;7.50;99.90;;;;;;5022144;28;20045;-82
2022/02/18 05:44:48;;;;;;;33.35;3.67;;;7.50;99.90;;;;;;5028379;28;20025;-81
2022/02/18 05:47:14;;;;;;;27.65;3.20;;;7.50;99.90;;;;;;5016009;28;20069;-81
2022/02/18 05:49:39;;;;;;;36.15;3.67;;;7.60;99.90;;;;;;5024104;28;20488;-81
2022/02/18 05:52:05;;;;;;;28.75;2.97;;;7.50;99.90;;;;;;5020415;28;20075;-81
2022/02/18 05:54:30;;;;;;;17.17;2.75;;;7.60;99.90;;;;;;5027973;28;20045;-81
2022/02/18 05:56:56;;;;;;;26.23;2.90;;;7.50;99.90;;;;;;5028362;28;20033;-82
2022/02/18 05:59:22;;;;;;;35.95;4.75;;;7.60;99.90;;;;;;5031735;28;20034;-81
2022/02/18 06:01:48;;;;;;;30.00;3.42;;;7.60;99.90;;;;;;5015662;28;20026;-81
2022/02/18 06:04:14;;;;;;;31.65;3.83;;;7.50;99.90;;;;;;5013204;28;20034;-81
2022/02/18 06:06:41;;;;;;;34.53;4.28;;;7.50;99.90;;;;;;5016225;28;20048;-80
2022/02/18 06:09:07;;;;;;;22.48;2.63;;;7.60;99.90;;;;;;5025938;28;20022;-81
2022/02/18 06:11:32;;;;;;;23.33;3.70;;;7.60;99.90;;;;;;5032813;28;20033;-81
2022/02/18 06:13:58;;;;;;;25.65;2.92;;;7.60;99.90;;;;;;5033154;28;20080;-82
2022/02/18 06:16:24;;;;;;;22.63;2.25;;;7.60;99.90;;;;;;5020512;28;20083;-81
2022/02/18 06:18:49;;;;;;;32.80;2.80;;;7.60;99.90;;;;;;5020806;28;20484;-81
2022/02/18 06:21:15;;;;;;;22.00;3.03;;;7.60;99.90;;;;;;5033513;28;20036;-81
2022/02/18 06:23:40;;;;;;;21.95;2.10;;;7.60;99.90;;;;;;5032927;28;20088;-82
2022/02/18 06:26:06;;;;;;;21.27;2.47;;;7.60;99.90;;;;;;5035097;28;20029;-81
2022/02/18 06:28:31;;;;;;;23.58;2.17;;;7.60;99.90;;;;;;5033302;28;20112;-81
2022/02/18 06:30:57;;;;;;;30.50;2.50;;;7.60;99.90;;;;;;5024397;28;20088;-82
2022/02/18 06:33:23;;;;;;;23.08;2.70;;;7.60;99.90;;;;;;5021475;28;20022;-82
2022/02/18 06:35:51;;;;;;;25.20;3.65;;;7.60;99.90;;;;;;5032033;28;20041;-81
2022/02/18 06:38:17;;;;;;;23.55;2.53;;;7.60;99.90;;;;;;5034819;28;20118;-82
2022/02/18 06:40:42;;;;;;;29.25;2.70;;;7.50;99.90;;;;;;5020442;28;20057;-81
2022/02/18 06:43:08;;;;;;;33.70;3.65;;;7.40;99.90;;;;;;5024128;28;20111;-81
2022/02/18 06:45:34;;;;;;;20.25;2.50;;;7.40;99.90;;;;;;5029880;28;20056;-81
2022/02/18 06:48:00;;;;;;;19.55;2.63;;;7.40;99.90;;;;;;5027293;28;20104;-81
2022/02/18 06:50:26;;;;;;;18.67;2.08;;;7.40;99.90;;;;;;5032519;28;20033;-82
2022/02/18 06:52:52;;;;;;;21.58;2.45;;;7.30;99.90;;;;;;5031183;28;20100;-82
2022/02/18 06:55:24;;;;;;;23.45;2.50;;;7.30;99.90;;;;;;5025411;28;20458;-82
2022/02/18 06:57:54;;;;;;;30.77;3.05;;;7.30;99.90;;;;;;5013545;28;20038;-82
2022/02/18 07:00:20;;;;;;;20.45;1.95;;;7.30;99.90;;;;;;5016868;28;20390;-81
2022/02/18 07:02:46;;;;;;;31.23;3.17;;;7.30;99.90;;;;;;5017784;28;20014;-81
2022/02/18 07:05:13;;;;;;;26.92;3.15;;;7.20;99.90;;;;;;5025409;28;20029;-81
2022/02/18 07:07:40;;;;;;;24.15;2.47;;;7.20;99.90;;;;;;5032337;28;20026;-80
2022/02/18 07:10:08;;;;;;;21.00;2.25;;;7.20;99.90;;;;;;5030297;28;20036;-81
2022/02/18 07:12:34;;;;;;;27.20;2.88;;;7.20;99.90;;;;;;5031089;28;20459;-81
2022/02/18 07:14:59;;;;;;;25.45;2.63;;;7.30;99.90;;;;;;5019019;28;20070;-80
2022/02/18 07:17:27;;;;;;;20.60;2.42;;;7.30;99.90;;;;;;5015634;28;20075;-81
2022/02/18 07:19:54;;;;;;;36.45;3.78;;;7.30;99.90;;;;;;5029318;28;20508;-80
2022/02/18 07:22:20;;;;;;;18.95;2.50;;;7.30;99.90;;;;;;5028253;28;20037;-81
2022/02/18 07:24:47;;;;;;;27.00;3.88;;;7.30;99.90;;;;;;5026664;28;20030;-82
2022/02/18 07:27:13;;;;;;;26.67;2.90;;;7.30;99.90;;;;;;5032325;28;20070;-81
2022/02/18 07:29:39;;;;;;;21.90;3.00;;;7.30;99.90;;;;;;5028396;28;21977;-82
2022/02/18 07:32:06;;;;;;;21.77;3.10;;;7.30;99.90;;;;;;5020554;28;20021;-81
2022/02/18 07:34:31;;;;;;;22.95;3.42;;;7.40;99.90;;;;;;5028161;28;20077;-80
2022/02/18 07:36:57;;;;;;;21.73;2.53;;;7.40;99.90;;;;;;5022248;28;20076;-82
2022/02/18 07:39:23;;;;;;;33.25;3.80;;;7.40;99.90;;;;;;5018859;28;20443;-82
2022/02/18 07:41:49;;;;;;;35.40;3.92;;;7.40;99.90;;;;;;5031303;28;20017;-82
2022/02/18 07:44:15;;;;;;;21.40;3.05;;;7.40;99.90;;;;;;5024395;28;20025;-83
2022/02/18 07:46:40;;;;;;;21.38;3.65;;;7.40;99.90;;;;;;5028911;28;20156;-83
2022/02/18 07:49:06;;;;;;;28.17;3.67;;;7.50;99.90;;;;;;5020091;28;20060;-83
2022/02/18 07:51:32;;;;;;;20.85;3.25;;;7.50;99.90;;;;;;5023109;28;20029;-82
2022/02/18 07:53:58;;;;;;;26.45;4.13;;;7.50;99.90;;;;;;5018123;28;20470;-82
2022/02/18 07:56:23;;;;;;;25.73;3.67;;;7.60;99.90;;;;;;5023938;28;20056;-81
2022/02/18 07:58:49;;;;;;;17.95;3.00;;;7.60;99.90;;;;;;5021446;28;20025;-82
2022/02/18 08:01:17;;;;;;;24.15;3.35;;;7.70;99.90;;;;;;5031556;28;20512;-82
2022/02/18 08:03:44;;;;;;;22.60;3.50;;;7.80;99.90;;;;;;5029603;28;20107;-82
2022/02/18 08:06:09;;;;;;;22.90;2.97;;;7.80;99.90;;;;;;5033118;28;20371;-82
2022/02/18 08:08:38;;;;;;;21.52;4.18;;;7.80;99.90;;;;;;5031961;28;20056;-82
2022/02/18 08:11:04;;;;;;;24.50;4.18;;;7.90;99.90;;;;;;5019676;28;20030;-80
2022/02/18 08:13:30;;;;;;;21.70;3.80;;;7.90;99.90;;;;;;5017588;28;20056;-80
2022/02/18 08:15:56;;;;;;;17.05;3.13;;;8.00;99.90;;;;;;5017637;28;20041;-82
2022/02/18 08:18:21;;;;;;;15.48;3.55;;;8.00;99.90;;;;;;5029806;28;20046;-83
2022/02/18 08:20:48;;;;;;;24.25;3.70;;;8.10;99.90;;;;;;5028917;28;20099;-82
2022/02/18 08:23:13;;;;;;;23.27;3.35;;;8.20;99.90;;;;;;5024539;28;20056;-80
2022/02/18 08:25:39;;;;;;;16.75;3.35;;;8.20;99.90;;;;;;5031325;28;20025;-83
2022/02/18 08:28:04;;;;;;;21.75;3.65;;;8.30;99.90;;;;;;5030878;28;20030;-82
2022/02/18 08:30:30;;;;;;;18.10;4.80;;;8.40;99.90;;;;;;5021046;28;20582;-82
2022/02/18 08:32:56;;;;;;;22.92;3.92;;;8.50;99.90;;;;;;5020516;28;20030;-83
2022/02/18 08:35:22;;;;;;;13.98;4.47;;;8.50;99.90;;;;;;5031612;28;20128;-83
2022/02/18 08:37:47;;;;;;;22.55;4.47;;;8.60;99.90;;;;;;5030265;28;20047;-83
2022/02/18 08:40:13;;;;;;;18.83;4.18;;;8.70;99.90;;;;;;5030647;28;20026;-83
2022/02/18 08:42:39;;;;;;;16.83;3.75;;;8.80;99.90;;;;;;5031631;28;20033;-82
2022/02/18 08:45:05;;;;;;;20.35;4.70;;;8.80;99.90;;;;;;5029596;28;20036;-82
2022/02/18 08:47:31;;;;;;;13.43;4.20;;;8.90;99.90;;;;;;5016330;28;20085;-83
2022/02/18 08:49:56;;;;;;;14.88;4.55;;;8.90;99.90;;;;;;5029702;28;20041;-83
2022/02/18 08:52:22;;;;;;;13.80;4.80;;;9.00;99.90;;;;;;5031253;28;20032;-83
2022/02/18 08:54:47;;;;;;;13.80;4.40;;;9.10;99.90;;;;;;5030843;28;20124;-83
2022/02/18 08:57:13;;;;;;;11.98;4.15;;;9.20;99.90;;;;;;5031828;28;20481;-83
2022/02/18 08:59:39;;;;;;;12.73;3.85;;;9.20;99.90;;;;;;5025862;28;20034;-82
2022/02/18 09:02:05;;;;;;;14.55;3.45;;;9.30;99.90;;;;;;5024718;28;20029;-83
2022/02/18 09:04:31;;;;;;;17.13;3.95;;;9.40;99.90;;;;;;5014413;28;20042;-83
2022/02/18 09:06:56;;;;;;;13.88;3.67;;;9.40;99.90;;;;;;5025258;28;20052;-83
2022/02/18 09:09:22;;;;;;;11.40;2.75;;;9.50;99.90;;;;;;5031228;28;20029;-83
2022/02/18 09:11:48;;;;;;;13.00;2.72;;;9.60;99.90;;;;;;5031445;28;20106;-83
2022/02/18 09:14:16;;;;;;;14.20;2.58;;;9.60;99.90;;;;;;5028418;28;20516;-83
2022/02/18 09:16:45;;;;;;;9.52;2.03;;;9.70;99.90;;;;;;5023802;28;20041;-82
2022/02/18 09:19:11;;;;;;;9.57;1.80;;;9.70;99.90;;;;;;5019383;28;20025;-82
2022/02/18 09:21:37;;;;;;;8.48;1.95;;;9.80;99.90;;;;;;5029960;28;20029;-82
2022/02/18 09:24:03;;;;;;;8.40;1.70;;;9.80;99.90;;;;;;5031545;28;20040;-83
2022/02/18 09:26:28;;;;;;;8.05;1.60;;;9.90;99.90;;;;;;5024285;28;20029;-83
2022/02/18 09:28:55;;;;;;;6.07;1.38;;;9.90;99.90;;;;;;5027901;28;20087;-81
2022/02/18 09:31:21;;;;;;;4.72;1.15;;;10.00;99.90;;;;;;5030792;28;20029;-83
2022/02/18 09:33:48;;;;;;;7.80;2.33;;;10.00;99.90;;;;;;5029173;28;20539;-83
2022/02/18 09:36:13;;;;;;;5.45;1.10;;;10.00;99.90;;;;;;5027684;28;20022;-83
2022/02/18 09:38:40;;;;;;;6.78;1.27;;;10.10;99.90;;;;;;5011809;28;20045;-82
2022/02/18 09:41:07;;;;;;;6.68;1.30;;;10.10;99.90;;;;;;5032227;28;20389;-82
2022/02/18 09:43:33;;;;;;;6.22;1.15;;;10.20;99.90;;;;;;5020143;28;20450;-83
2022/02/18 09:46:01;;;;;;;4.07;1.15;;;10.20;99.90;;;;;;5026510;28;20428;-83
2022/02/18 09:48:27;;;;;;;7.65;1.00;;;10.20;99.90;;;;;;5034720;28;20044;-83
2022/02/18 09:50:53;;;;;;;3.47;0.70;;;10.30;99.90;;;;;;5034042;28;20025;-82
2022/02/18 09:53:20;;;;;;;3.80;0.90;;;10.30;99.90;;;;;;5032066;28;20034;-81
2022/02/18 09:55:47;;;;;;;3.65;0.70;;;10.40;99.90;;;;;;5027630;28;20076;-82
2022/02/18 09:58:16;;;;;;;3.83;0.80;;;10.40;99.90;;;;;;5025199;28;20130;-82
2022/02/18 10:00:42;;;;;;;4.93;0.75;;;10.40;99.90;;;;;;5033633;28;20033;-82
2022/02/18 10:03:08;;;;;;;2.30;0.77;;;10.50;99.90;;;;;;5019447;28;20017;-83
2022/02/18 10:05:34;;;;;;;4.18;0.80;;;10.60;99.90;;;;;;5016843;28;20041;-83
2022/02/18 10:08:14;;;;;;;1.83;0.60;;;10.60;99.90;;;;;;5014742;28;20025;-83
2022/02/18 10:10:41;;;;;;;2.28;0.80;;;10.70;99.90;;;;;;5013784;28;20033;-82
2022/02/18 10:13:28;;;;;;;4.15;0.65;;;10.70;99.90;;;;;;5017372;28;20048;-81
2022/02/18 10:15:56;;;;;;;1.92;0.60;;;10.80;99.90;;;;;;5026518;28;20037;-82
2022/02/18 10:18:21;;;;;;;2.67;0.60;;;10.90;99.90;;;;;;5028339;28;20089;-83
2022/02/18 10:20:49;;;;;;;2.92;0.85;;;10.90;99.90;;;;;;5021511;28;20061;-83
2022/02/18 10:23:17;;;;;;;3.50;0.60;;;10.90;99.90;;;;;;5021872;28;20378;-82
2022/02/18 10:25:45;;;;;;;2.13;0.60;;;11.00;99.90;;;;;;5024789;28;20033;-83
2022/02/18 10:28:13;;;;;;;2.03;0.50;;;11.00;99.90;;;;;;5021526;28;20089;-83
2022/02/18 10:30:39;;;;;;;9.07;0.77;;;11.10;99.90;;;;;;5031567;28;20036;-82
2022/02/18 10:33:20;;;;;;;1.15;0.55;;;11.10;99.90;;;;;;5034977;28;20535;-83
2022/02/18 10:35:47;;;;;;;2.30;0.55;;;11.10;99.90;;;;;;5032111;28;20512;-83
2022/02/18 10:38:13;;;;;;;1.42;0.50;;;11.10;99.90;;;;;;5025625;28;20026;-83
2022/02/18 10:40:47;;;;;;;2.47;0.50;;;11.20;99.90;;;;;;5020944;28;20089;-83
2022/02/18 10:43:25;;;;;;;2.53;0.50;;;11.20;99.90;;;;;;5032091;28;20072;-83
2022/02/18 10:46:04;;;;;;;1.58;0.50;;;11.20;99.90;;;;;;5031728;28;20426;-83
2022/02/18 10:48:44;;;;;;;2.20;0.50;;;11.30;99.90;;;;;;5032514;28;20017;-83
2022/02/18 10:51:19;;;;;;;1.60;0.55;;;11.30;99.90;;;;;;5021306;28;20398;-83
2022/02/18 10:53:49;;;;;;;2.80;1.00;;;11.40;99.90;;;;;;5024961;28;20033;-83
2022/02/18 10:56:17;;;;;;;3.05;0.60;;;11.40;99.90;;;;;;5027266;28;20042;-83
2022/02/18 10:58:50;;;;;;;2.65;0.50;;;11.50;99.90;;;;;;5020115;28;20034;-83
2022/02/18 11:01:24;;;;;;;1.63;0.40;;;11.50;99.90;;;;;;5028817;28;20044;-84
2022/02/18 11:03:51;;;;;;;3.05;0.35;;;11.50;99.90;;;;;;5015900;28;20070;-83
2022/02/18 11:06:26;;;;;;;2.30;0.40;;;11.60;99.90;;;;;;5018018;28;20487;-84
2022/02/18 11:09:01;;;;;;;2.05;0.40;;;11.70;99.90;;;;;;5031281;28;20156;-83
2022/02/18 11:11:39;;;;;;;1.02;0.40;;;11.70;99.90;;;;;;5023040;28;20026;-83
2022/02/18 11:14:07;;;;;;;0.93;0.30;;;11.80;99.90;;;;;;5014730;28;20039;-82
2022/02/18 11:16:35;;;;;;;2.05;0.40;;;11.80;99.90;;;;;;5016582;28;20430;-83
2022/02/18 11:19:01;;;;;;;1.60;0.40;;;11.90;99.90;;;;;;5017334;28;20025;-83
2022/02/18 11:21:27;;;;;;;1.52;0.40;;;11.90;99.90;;;;;;5016997;28;20113;-83
2022/02/18 11:23:54;;;;;;;4.32;0.40;;;11.90;99.90;;;;;;5021988;28;20034;-82
2022/02/18 11:26:22;;;;;;;0.77;0.30;;;11.90;99.90;;;;;;5027177;28;20528;-82
2022/02/18 11:28:49;;;;;;;1.20;0.25;;;11.90;99.90;;;;;;5025314;28;20068;-82
2022/02/18 11:31:25;;;;;;;1.38;0.20;;;12.00;99.90;;;;;;5017132;28;20032;-82
2022/02/18 11:34:09;;;;;;;0.60;0.30;;;12.00;99.90;;;;;;5027022;28;20116;-82
2022/02/18 11:37:12;;;;;;;0.50;0.20;;;12.10;99.90;;;;;;5020641;28;20428;-82
2022/02/18 11:39:50;;;;;;;1.15;0.22;;;12.10;99.90;;;;;;5024060;28;20032;-82
2022/02/18 11:42:24;;;;;;;0.88;0.30;;;12.20;99.90;;;;;;5013815;28;20045;-82
2022/02/18 11:44:50;;;;;;;0.80;0.20;;;12.20;99.90;;;;;;5023390;28;20462;-82
2022/02/18 11:47:18;;;;;;;0.50;0.20;;;12.20;99.90;;;;;;5018032;28;20033;-83
2022/02/18 11:49:48;;;;;;;0.50;0.20;;;12.30;99.90;;;;;;5030804;28;20029;-83
2022/02/18 11:52:17;;;;;;;0.52;0.15;;;12.30;99.90;;;;;;5032706;28;20088;-83
2022/02/18 11:54:44;;;;;;;1.25;0.20;;;12.40;99.90;;;;;;5029123;28;20400;-83
2022/02/18 11:57:13;;;;;;;1.75;0.20;;;12.40;99.90;;;;;;5032697;28;20021;-82
2022/02/18 12:00:03;;;;;;;1.15;0.22;;;12.50;99.90;;;;;;5024897;28;20072;-83
2022/02/18 12:02:49;;;;;;;1.67;0.28;;;12.60;99.90;;;;;;5015068;28;20374;-83
2022/02/18 12:05:16;;;;;;;0.68;0.25;;;12.60;99.90;;;;;;5014926;28;20486;-83
2022/02/18 12:07:54;;;;;;;1.60;0.30;;;12.70;99.90;;;;;;5025666;28;20056;-82
2022/02/18 12:10:29;;;;;;;1.02;0.30;;;12.70;99.90;;;;;;5022869;28;20033;-80
2022/02/18 12:13:03;;;;;;;2.65;0.30;;;12.80;99.90;;;;;;5022982;28;20053;-83
2022/02/18 12:15:31;;;;;;;1.00;0.30;;;12.80;99.90;;;;;;5021505;28;20041;-83
2022/02/18 12:18:03;;;;;;;0.88;0.30;;;12.80;99.90;;;;;;5018806;28;20045;-82
2022/02/18 12:20:47;;;;;;;2.35;0.20;;;12.90;99.90;;;;;;5030006;28;20029;-82
2022/02/18 12:23:26;;;;;;;1.60;0.47;;;12.90;99.90;;;;;;5018760;28;20124;-83
2022/02/18 12:26:24;;;;;;;0.80;0.20;;;13.00;99.90;;;;;;5020118;28;20033;-83
2022/02/18 12:28:51;;;;;;;0.82;0.30;;;12.90;99.90;;;;;;5022851;28;20025;-82
2022/02/18 12:31:17;;;;;;;1.35;0.20;;;13.00;99.90;;;;;;5021461;28;20034;-84
2022/02/18 12:33:44;;;;;;;1.00;0.20;;;12.90;99.90;;;;;;5019753;28;20053;-83
2022/02/18 12:36:16;;;;;;;1.20;0.30;;;12.90;99.90;;;;;;5018706;28;20111;-84
2022/02/18 12:38:47;;;;;;;0.75;0.30;;;12.90;99.90;;;;;;5017608;28;20033;-83
2022/02/18 12:41:18;;;;;;;1.80;0.35;;;12.90;99.90;;;;;;5021075;28;20036;-82
2022/02/18 12:43:43;;;;;;;1.65;0.60;;;12.80;99.90;;;;;;5026233;28;20026;-81
2022/02/18 12:46:12;;;;;;;2.22;0.40;;;12.70;99.90;;;;;;5023507;28;20071;-83
2022/02/18 12:48:40;;;;;;;1.02;0.32;;;12.60;99.90;;;;;;5023565;28;20030;-82